sensor_id;sensor_type;location;lat;lon;timestamp;pressure;altitude;pressure_sealevel;temperature;humidity
64895;BME280;51588;53.702;10.208;2024-02-15T00:01:25;101054.69;;;20.82;49.87
64895;BME280;51588;53.702;10.208;2024-02-15T00:03:52;101049.28;;;20.82;49.49
64895;BME280;51588;53.702;10.208;2024-02-15T00:06:19;100915.09;;;19.98;49.75
64895;BME280;51588;53.702;10.208;2024-02-15T00:08:46;101051.16;;;20.81;49.79
64895;BME280;51588;53.702;10.208;2024-02-15T00:11:13;101051.38;;;20.80;49.61
64895;BME280;51588;53.702;10.208;2024-02-15T00:13:41;101054.09;;;20.80;49.86
64895;BME280;51588;53.702;10.208;2024-02-15T00:16:13;101047.25;;;20.77;49.47
64895;BME280;51588;53.702;10.208;2024-02-15T00:18:40;101053.47;;;20.78;49.84
64895;BME280;51588;53.702;10.208;2024-02-15T00:21:06;101049.94;;;20.77;49.69
64895;BME280;51588;53.702;10.208;2024-02-15T00:23:33;101051.00;;;20.76;49.84
64895;BME280;51588;53.702;10.208;2024-02-15T00:25:59;101051.00;;;20.76;49.65
64895;BME280;51588;53.702;10.208;2024-02-15T00:28:42;101044.94;;;20.74;49.70
64895;BME280;51588;53.702;10.208;2024-02-15T00:31:09;101043.91;;;20.75;49.89
64895;BME280;51588;53.702;10.208;2024-02-15T00:33:38;101042.88;;;20.76;49.62
64895;BME280;51588;53.702;10.208;2024-02-15T00:36:05;101046.81;;;20.74;49.69
64895;BME280;51588;53.702;10.208;2024-02-15T00:38:33;101057.63;;;20.74;49.66
64895;BME280;51588;53.702;10.208;2024-02-15T00:41:04;101046.81;;;20.74;49.70
64895;BME280;51588;53.702;10.208;2024-02-15T00:43:34;101044.34;;;20.72;49.87
64895;BME280;51588;53.702;10.208;2024-02-15T00:46:02;101045.19;;;20.73;49.63
64895;BME280;51588;53.702;10.208;2024-02-15T00:48:29;101046.22;;;20.72;49.77
64895;BME280;51588;53.702;10.208;2024-02-15T00:50:55;101048.09;;;20.71;49.85
64895;BME280;51588;53.702;10.208;2024-02-15T00:53:23;101043.72;;;20.70;49.60
64895;BME280;51588;53.702;10.208;2024-02-15T00:55:49;101041.84;;;20.71;49.83
64895;BME280;51588;53.702;10.208;2024-02-15T00:58:19;101048.31;;;20.70;49.78
64895;BME280;51588;53.702;10.208;2024-02-15T01:00:47;101051.81;;;20.70;49.69
64895;BME280;51588;53.702;10.208;2024-02-15T01:03:16;101045.81;;;20.68;49.90
64895;BME280;51588;53.702;10.208;2024-02-15T01:05:43;101056.44;;;20.70;49.63
64895;BME280;51588;53.702;10.208;2024-02-15T01:08:09;101052.06;;;20.69;49.73
64895;BME280;51588;53.702;10.208;2024-02-15T01:10:36;101055.78;;;20.68;49.68
64895;BME280;51588;53.702;10.208;2024-02-15T01:13:03;101051.44;;;20.67;49.78
64895;BME280;51588;53.702;10.208;2024-02-15T01:15:35;101037.97;;;20.54;49.75
64895;BME280;51588;53.702;10.208;2024-02-15T01:18:10;101055.19;;;20.66;49.75
64895;BME280;51588;53.702;10.208;2024-02-15T01:20:38;101055.78;;;20.68;49.81
64895;BME280;51588;53.702;10.208;2024-02-15T01:23:05;101056.84;;;20.67;49.77
64895;BME280;51588;53.702;10.208;2024-02-15T01:25:33;101062.25;;;20.67;49.76
64895;BME280;51588;53.702;10.208;2024-02-15T01:27:59;101050.59;;;20.66;49.78
64895;BME280;51588;53.702;10.208;2024-02-15T01:30:27;101059.78;;;20.65;49.68
64895;BME280;51588;53.702;10.208;2024-02-15T01:32:54;101059.78;;;20.65;49.91
64895;BME280;51588;53.702;10.208;2024-02-15T01:35:22;101053.53;;;20.65;49.59
64895;BME280;51588;53.702;10.208;2024-02-15T01:37:51;101051.84;;;20.64;49.99
64895;BME280;51588;53.702;10.208;2024-02-15T01:40:17;101051.03;;;20.63;49.88
64895;BME280;51588;53.702;10.208;2024-02-15T01:42:45;101050.00;;;20.64;49.60
64895;BME280;51588;53.702;10.208;2024-02-15T01:45:12;101055.59;;;20.63;49.75
64895;BME280;51588;53.702;10.208;2024-02-15T01:47:39;101053.53;;;20.65;49.83
64895;BME280;51588;53.702;10.208;2024-02-15T01:50:16;101053.72;;;20.63;49.66
64895;BME280;51588;53.702;10.208;2024-02-15T01:52:45;101058.31;;;20.63;49.93
64895;BME280;51588;53.702;10.208;2024-02-15T01:55:15;101048.56;;;20.62;49.66
64895;BME280;51588;53.702;10.208;2024-02-15T01:57:44;101051.47;;;20.60;49.67
64895;BME280;51588;53.702;10.208;2024-02-15T02:00:12;101050.41;;;20.61;49.79
64895;BME280;51588;53.702;10.208;2024-02-15T02:02:41;101052.28;;;20.61;49.75
64895;BME280;51588;53.702;10.208;2024-02-15T02:05:08;101057.69;;;20.61;49.82
64895;BME280;51588;53.702;10.208;2024-02-15T02:07:37;101058.97;;;20.58;49.86
64895;BME280;51588;53.702;10.208;2024-02-15T02:10:05;101051.66;;;20.59;49.81
64895;BME280;51588;53.702;10.208;2024-02-15T02:12:34;101057.06;;;20.59;50.04
64895;BME280;51588;53.702;10.208;2024-02-15T02:15:00;101050.84;;;20.58;49.66
64895;BME280;51588;53.702;10.208;2024-02-15T02:17:27;101051.47;;;20.60;49.72
64895;BME280;51588;53.702;10.208;2024-02-15T02:19:54;101055.44;;;20.58;49.80
64895;BME280;51588;53.702;10.208;2024-02-15T02:22:20;101050.84;;;20.58;49.74
64895;BME280;51588;53.702;10.208;2024-02-15T02:25:02;101060.84;;;20.58;49.74
64895;BME280;51588;53.702;10.208;2024-02-15T02:27:29;101045.44;;;20.58;49.90
64895;BME280;51588;53.702;10.208;2024-02-15T02:29:58;101039.41;;;20.56;49.85
64895;BME280;51588;53.702;10.208;2024-02-15T02:32:24;101043.97;;;20.56;49.88
64895;BME280;51588;53.702;10.208;2024-02-15T02:34:51;101050.03;;;20.58;49.76
64895;BME280;51588;53.702;10.208;2024-02-15T02:37:19;101046.69;;;20.56;49.81
64895;BME280;51588;53.702;10.208;2024-02-15T02:39:46;101044.81;;;20.56;49.69
64895;BME280;51588;53.702;10.208;2024-02-15T02:42:14;101045.84;;;20.55;49.70
64895;BME280;51588;53.702;10.208;2024-02-15T02:44:40;101022.00;;;20.39;49.59
64895;BME280;51588;53.702;10.208;2024-02-15T02:47:07;101054.59;;;20.57;49.71
64895;BME280;51588;53.702;10.208;2024-02-15T02:49:35;101058.34;;;20.56;49.85
64895;BME280;51588;53.702;10.208;2024-02-15T02:52:02;101051.06;;;20.57;49.85
64895;BME280;51588;53.702;10.208;2024-02-15T02:54:29;101052.94;;;20.56;49.69
64895;BME280;51588;53.702;10.208;2024-02-15T02:56:56;101043.78;;;20.51;49.59
64895;BME280;51588;53.702;10.208;2024-02-15T02:59:24;101053.13;;;20.55;49.97
64895;BME280;51588;53.702;10.208;2024-02-15T03:01:50;101047.53;;;20.56;49.71
64895;BME280;51588;53.702;10.208;2024-02-15T03:04:21;101028.84;;;20.41;49.88
64895;BME280;51588;53.702;10.208;2024-02-15T03:06:48;101047.72;;;20.55;49.78
64895;BME280;51588;53.702;10.208;2024-02-15T03:09:15;100807.69;;;19.10;49.69
64895;BME280;51588;53.702;10.208;2024-02-15T03:11:41;101043.38;;;20.54;49.69
64895;BME280;51588;53.702;10.208;2024-02-15T03:14:08;100948.31;;;19.99;49.91
64895;BME280;51588;53.702;10.208;2024-02-15T03:16:36;101034.63;;;20.52;49.61
64895;BME280;51588;53.702;10.208;2024-02-15T03:19:03;101045.44;;;20.52;49.68
64895;BME280;51588;53.702;10.208;2024-02-15T03:21:30;101039.22;;;20.51;49.80
64895;BME280;51588;53.702;10.208;2024-02-15T03:23:56;101041.91;;;20.51;50.12
64895;BME280;51588;53.702;10.208;2024-02-15T03:26:29;101060.00;;;20.51;49.81
64895;BME280;51588;53.702;10.208;2024-02-15T03:29:05;101051.09;;;20.50;49.88
64895;BME280;51588;53.702;10.208;2024-02-15T03:31:33;101052.97;;;20.50;49.83
64895;BME280;51588;53.702;10.208;2024-02-15T03:34:02;101034.06;;;20.36;49.94
64895;BME280;51588;53.702;10.208;2024-02-15T03:36:35;101049.63;;;20.48;49.89
64895;BME280;51588;53.702;10.208;2024-02-15T03:39:04;101063.13;;;20.48;49.98
64895;BME280;51588;53.702;10.208;2024-02-15T03:41:31;101059.41;;;20.49;49.90
64895;BME280;51588;53.702;10.208;2024-02-15T03:44:01;101056.09;;;20.47;49.90
64895;BME280;51588;53.702;10.208;2024-02-15T03:46:27;101036.75;;;20.36;49.91
64895;BME280;51588;53.702;10.208;2024-02-15T03:48:54;101071.47;;;20.46;50.04
64895;BME280;51588;53.702;10.208;2024-02-15T03:51:32;101065.84;;;20.48;50.11
64895;BME280;51588;53.702;10.208;2024-02-15T03:53:58;101002.72;;;20.03;49.89
64895;BME280;51588;53.702;10.208;2024-02-15T03:56:25;101066.91;;;20.47;49.90
64895;BME280;51588;53.702;10.208;2024-02-15T03:58:51;101077.72;;;20.47;50.00
64895;BME280;51588;53.702;10.208;2024-02-15T04:01:18;101072.50;;;20.45;50.02
64895;BME280;51588;53.702;10.208;2024-02-15T04:03:45;101077.91;;;20.45;49.85
64895;BME280;51588;53.702;10.208;2024-02-15T04:06:13;101070.84;;;20.44;49.90
64895;BME280;51588;53.702;10.208;2024-02-15T04:08:41;101076.25;;;20.44;49.97
64895;BME280;51588;53.702;10.208;2024-02-15T04:11:07;101075.19;;;20.45;49.75
64895;BME280;51588;53.702;10.208;2024-02-15T04:13:35;101058.81;;;20.33;49.91
64895;BME280;51588;53.702;10.208;2024-02-15T04:16:05;101072.94;;;20.42;50.07
64895;BME280;51588;53.702;10.208;2024-02-15T04:18:38;101071.88;;;20.43;50.01
64895;BME280;51588;53.702;10.208;2024-02-15T04:21:07;101063.75;;;20.43;49.80
64895;BME280;51588;53.702;10.208;2024-02-15T04:23:33;101066.69;;;20.41;49.98
64895;BME280;51588;53.702;10.208;2024-02-15T04:26:04;101057.56;;;20.42;50.18
64895;BME280;51588;53.702;10.208;2024-02-15T04:28:30;101063.16;;;20.41;49.95
64895;BME280;51588;53.702;10.208;2024-02-15T04:30:58;101027.63;;;20.18;50.06
64895;BME280;51588;53.702;10.208;2024-02-15T04:33:25;101065.84;;;20.41;49.91
64895;BME280;51588;53.702;10.208;2024-02-15T04:35:52;101073.13;;;20.40;50.12
64895;BME280;51588;53.702;10.208;2024-02-15T04:38:24;101078.53;;;20.40;50.11
64895;BME280;51588;53.702;10.208;2024-02-15T04:40:51;101079.56;;;20.39;50.19
64895;BME280;51588;53.702;10.208;2024-02-15T04:43:20;101079.56;;;20.39;49.88
64895;BME280;51588;53.702;10.208;2024-02-15T04:45:51;101079.56;;;20.39;50.02
64895;BME280;51588;53.702;10.208;2024-02-15T04:48:23;101040.09;;;20.12;49.95
64895;BME280;51588;53.702;10.208;2024-02-15T04:50:50;101090.38;;;20.39;49.86
64895;BME280;51588;53.702;10.208;2024-02-15T04:53:17;101049.84;;;20.20;49.89
64895;BME280;51588;53.702;10.208;2024-02-15T04:55:44;101090.59;;;20.38;49.83
64895;BME280;51588;53.702;10.208;2024-02-15T04:58:11;101061.31;;;20.15;50.02
64895;BME280;51588;53.702;10.208;2024-02-15T05:00:39;101081.88;;;20.29;50.02
64895;BME280;51588;53.702;10.208;2024-02-15T05:03:06;100895.03;;;18.96;49.91
64895;BME280;51588;53.702;10.208;2024-02-15T05:05:36;101113.88;;;20.39;50.07
64895;BME280;51588;53.702;10.208;2024-02-15T05:08:04;101101.19;;;20.39;50.03
64895;BME280;51588;53.702;10.208;2024-02-15T05:10:31;101109.09;;;20.41;49.80
64895;BME280;51588;53.702;10.208;2024-02-15T05:13:04;101107.22;;;20.41;50.14
64895;BME280;51588;53.702;10.208;2024-02-15T05:15:30;101101.59;;;20.43;50.07
64895;BME280;51588;53.702;10.208;2024-02-15T05:17:59;101098.69;;;20.44;49.97
64895;BME280;51588;53.702;10.208;2024-02-15T05:20:26;101108.25;;;20.47;50.00
64895;BME280;51588;53.702;10.208;2024-02-15T05:22:53;101097.44;;;20.47;50.04
64895;BME280;51588;53.702;10.208;2024-02-15T05:25:22;101104.31;;;20.50;50.07
64895;BME280;51588;53.702;10.208;2024-02-15T05:27:52;101101.59;;;20.50;50.04
64895;BME280;51588;53.702;10.208;2024-02-15T05:30:20;101100.53;;;20.51;50.19
64895;BME280;51588;53.702;10.208;2024-02-15T05:32:46;101094.94;;;20.52;50.31
64895;BME280;51588;53.702;10.208;2024-02-15T05:35:14;101094.09;;;20.52;50.03
64895;BME280;51588;53.702;10.208;2024-02-15T05:37:43;101087.66;;;20.53;50.08
64895;BME280;51588;53.702;10.208;2024-02-15T05:40:10;101086.41;;;20.55;50.12
64895;BME280;51588;53.702;10.208;2024-02-15T05:42:40;101055.47;;;20.38;50.30
64895;BME280;51588;53.702;10.208;2024-02-15T05:45:29;101091.41;;;20.58;50.43
64895;BME280;51588;53.702;10.208;2024-02-15T05:47:58;101086.19;;;20.57;50.04
64895;BME280;51588;53.702;10.208;2024-02-15T05:50:26;101085.38;;;20.56;50.31
64895;BME280;51588;53.702;10.208;2024-02-15T05:52:55;100997.97;;;19.98;50.33
64895;BME280;51588;53.702;10.208;2024-02-15T05:55:23;101076.00;;;20.59;50.28
64895;BME280;51588;53.702;10.208;2024-02-15T05:57:51;101083.06;;;20.60;50.35
64895;BME280;51588;53.702;10.208;2024-02-15T06:00:18;101080.16;;;20.61;50.45
64895;BME280;51588;53.702;10.208;2024-02-15T06:02:45;101072.88;;;20.62;50.49
64895;BME280;51588;53.702;10.208;2024-02-15T06:05:12;101078.06;;;20.63;50.44
64895;BME280;51588;53.702;10.208;2024-02-15T06:07:43;101079.53;;;20.66;50.45
64895;BME280;51588;53.702;10.208;2024-02-15T06:10:11;101089.28;;;20.67;50.36
64895;BME280;51588;53.702;10.208;2024-02-15T06:12:38;101037.00;;;20.28;50.50
64895;BME280;51588;53.702;10.208;2024-02-15T06:15:07;101091.56;;;20.63;50.65
64895;BME280;51588;53.702;10.208;2024-02-15T06:17:40;101094.91;;;20.65;50.40
64895;BME280;51588;53.702;10.208;2024-02-15T06:20:11;101094.06;;;20.65;50.46
64895;BME280;51588;53.702;10.208;2024-02-15T06:22:39;101090.34;;;20.66;50.69
64895;BME280;51588;53.702;10.208;2024-02-15T06:25:08;101073.75;;;20.49;51.16
64895;BME280;51588;53.702;10.208;2024-02-15T06:27:35;101098.44;;;20.66;51.07
64895;BME280;51588;53.702;10.208;2024-02-15T06:30:12;101094.69;;;20.67;50.96
64895;BME280;51588;53.702;10.208;2024-02-15T06:32:59;101090.53;;;20.64;50.78
64895;BME280;51588;53.702;10.208;2024-02-15T06:35:44;101100.09;;;20.67;50.77
64895;BME280;51588;53.702;10.208;2024-02-15T06:38:28;100886.13;;;19.15;52.35
64895;BME280;51588;53.702;10.208;2024-02-15T06:41:19;101108.59;;;20.70;53.50
64895;BME280;51588;53.702;10.208;2024-02-15T06:43:46;101104.03;;;20.71;54.13
64895;BME280;51588;53.702;10.208;2024-02-15T06:46:12;101101.97;;;20.73;54.91
64895;BME280;51588;53.702;10.208;2024-02-15T06:48:42;101105.91;;;20.77;55.19
64895;BME280;51588;53.702;10.208;2024-02-15T06:51:12;101113.78;;;20.78;55.44
64895;BME280;51588;53.702;10.208;2024-02-15T06:53:40;101120.66;;;20.81;55.63
64895;BME280;51588;53.702;10.208;2024-02-15T06:56:08;101113.34;;;20.81;55.76
64895;BME280;51588;53.702;10.208;2024-02-15T06:58:36;101112.53;;;20.81;55.60
64895;BME280;51588;53.702;10.208;2024-02-15T07:01:03;101106.69;;;20.84;55.74
64895;BME280;51588;53.702;10.208;2024-02-15T07:03:30;101111.47;;;20.82;55.57
64895;BME280;51588;53.702;10.208;2024-02-15T07:05:57;101117.53;;;20.84;55.30
64895;BME280;51588;53.702;10.208;2024-02-15T07:08:24;101116.69;;;20.83;55.34
64895;BME280;51588;53.702;10.208;2024-02-15T07:10:51;101109.59;;;20.82;55.49
64895;BME280;51588;53.702;10.208;2024-02-15T07:13:18;101109.59;;;20.82;55.08
64895;BME280;51588;53.702;10.208;2024-02-15T07:15:46;101108.13;;;20.86;55.09
64895;BME280;51588;53.702;10.208;2024-02-15T07:18:15;101109.81;;;20.87;54.81
64895;BME280;51588;53.702;10.208;2024-02-15T07:20:45;101105.44;;;20.86;55.02
64895;BME280;51588;53.702;10.208;2024-02-15T07:23:11;101103.38;;;20.88;55.25
64895;BME280;51588;53.702;10.208;2024-02-15T07:25:38;101107.72;;;20.89;55.16
64895;BME280;51588;53.702;10.208;2024-02-15T07:28:05;101117.50;;;20.90;55.06
64895;BME280;51588;53.702;10.208;2024-02-15T07:30:33;101114.78;;;20.90;54.69
64895;BME280;51588;53.702;10.208;2024-02-15T07:33:01;101044.63;;;20.51;54.73
64895;BME280;51588;53.702;10.208;2024-02-15T07:35:28;101122.06;;;20.90;54.52
64895;BME280;51588;53.702;10.208;2024-02-15T07:37:56;101121.63;;;20.93;54.56
64895;BME280;51588;53.702;10.208;2024-02-15T07:40:26;101061.91;;;20.50;54.65
64895;BME280;51588;53.702;10.208;2024-02-15T07:42:56;101101.50;;;20.82;54.53
64895;BME280;51588;53.702;10.208;2024-02-15T07:45:23;101100.25;;;20.78;54.55
64895;BME280;51588;53.702;10.208;2024-02-15T07:47:49;101134.31;;;20.99;54.52
64895;BME280;51588;53.702;10.208;2024-02-15T07:50:17;101128.28;;;20.97;54.34
64895;BME280;51588;53.702;10.208;2024-02-15T07:52:48;101131.63;;;20.99;54.40
64895;BME280;51588;53.702;10.208;2024-02-15T07:55:15;101130.56;;;21.00;54.43
64895;BME280;51588;53.702;10.208;2024-02-15T07:57:42;101134.13;;;21.01;54.50
64895;BME280;51588;53.702;10.208;2024-02-15T08:00:09;101137.63;;;21.01;54.23
64895;BME280;51588;53.702;10.208;2024-02-15T08:02:38;101050.06;;;20.38;54.07
64895;BME280;51588;53.702;10.208;2024-02-15T08:05:06;101133.88;;;21.02;54.49
64895;BME280;51588;53.702;10.208;2024-02-15T08:07:37;101130.13;;;21.03;54.30
64895;BME280;51588;53.702;10.208;2024-02-15T08:10:05;101127.44;;;21.03;54.54
64895;BME280;51588;53.702;10.208;2024-02-15T08:12:38;101132.84;;;21.03;54.42
64895;BME280;51588;53.702;10.208;2024-02-15T08:15:05;101006.44;;;20.15;54.64
64895;BME280;51588;53.702;10.208;2024-02-15T08:17:38;101094.41;;;20.81;54.79
64895;BME280;51588;53.702;10.208;2024-02-15T08:20:07;101131.56;;;21.06;54.78
64895;BME280;51588;53.702;10.208;2024-02-15T08:22:34;101135.13;;;21.06;54.88
64895;BME280;51588;53.702;10.208;2024-02-15T08:25:06;101137.81;;;21.06;54.80
64895;BME280;51588;53.702;10.208;2024-02-15T08:27:36;101142.19;;;21.07;54.87
64895;BME280;51588;53.702;10.208;2024-02-15T08:30:07;101106.91;;;20.89;54.91
64895;BME280;51588;53.702;10.208;2024-02-15T08:32:35;101136.56;;;21.09;55.06
64895;BME280;51588;53.702;10.208;2024-02-15T08:35:02;101105.84;;;20.90;55.11
64895;BME280;51588;53.702;10.208;2024-02-15T08:37:30;101132.81;;;21.10;55.08
64895;BME280;51588;53.702;10.208;2024-02-15T08:39:57;101129.28;;;21.09;55.18
64895;BME280;51588;53.702;10.208;2024-02-15T08:42:26;101131.13;;;21.09;55.02
64895;BME280;51588;53.702;10.208;2024-02-15T08:44:53;101131.13;;;21.09;55.06
64895;BME280;51588;53.702;10.208;2024-02-15T08:47:19;101124.94;;;21.08;55.02
64895;BME280;51588;53.702;10.208;2024-02-15T08:49:46;101133.03;;;21.08;55.03
64895;BME280;51588;53.702;10.208;2024-02-15T08:52:13;101125.53;;;21.10;55.39
64895;BME280;51588;53.702;10.208;2024-02-15T08:54:39;101119.13;;;21.11;55.30
64895;BME280;51588;53.702;10.208;2024-02-15T08:57:06;101122.00;;;21.10;55.12
64895;BME280;51588;53.702;10.208;2024-02-15T08:59:34;101125.34;;;21.12;55.18
64895;BME280;51588;53.702;10.208;2024-02-15T09:02:01;101114.72;;;21.10;55.09
64895;BME280;51588;53.702;10.208;2024-02-15T09:04:31;101113.75;;;20.91;54.52
64895;BME280;51588;53.702;10.208;2024-02-15T09:06:57;101119.28;;;21.10;54.66
64895;BME280;51588;53.702;10.208;2024-02-15T09:09:24;101119.28;;;21.10;54.57
64895;BME280;51588;53.702;10.208;2024-02-15T09:11:50;101122.22;;;21.08;54.54
64895;BME280;51588;53.702;10.208;2024-02-15T09:14:17;101124.69;;;21.10;54.56
64895;BME280;51588;53.702;10.208;2024-02-15T09:16:45;101119.13;;;21.11;54.54
64895;BME280;51588;53.702;10.208;2024-02-15T09:19:12;101117.41;;;21.10;54.54
64895;BME280;51588;53.702;10.208;2024-02-15T09:21:39;101116.81;;;21.08;54.45
64895;BME280;51588;53.702;10.208;2024-02-15T09:24:08;101124.69;;;21.10;54.45
64895;BME280;51588;53.702;10.208;2024-02-15T09:26:34;101133.03;;;21.08;54.35
64895;BME280;51588;53.702;10.208;2024-02-15T09:29:01;101131.97;;;21.09;54.25
64895;BME280;51588;53.702;10.208;2024-02-15T09:31:28;101124.09;;;21.08;54.56
64895;BME280;51588;53.702;10.208;2024-02-15T09:34:03;101122.22;;;21.08;54.56
64895;BME280;51588;53.702;10.208;2024-02-15T09:36:34;101117.00;;;21.07;54.54
64895;BME280;51588;53.702;10.208;2024-02-15T09:39:00;101118.44;;;21.09;54.49
64895;BME280;51588;53.702;10.208;2024-02-15T09:41:27;101092.13;;;20.91;54.51
64895;BME280;51588;53.702;10.208;2024-02-15T09:43:57;101120.78;;;21.12;54.76
64895;BME280;51588;53.702;10.208;2024-02-15T09:46:24;101122.22;;;21.15;54.87
64895;BME280;51588;53.702;10.208;2024-02-15T09:48:54;101027.97;;;20.61;54.57
64895;BME280;51588;53.702;10.208;2024-02-15T09:51:25;101121.59;;;21.13;54.80
64895;BME280;51588;53.702;10.208;2024-02-15T09:53:56;101120.56;;;21.14;54.73
64895;BME280;51588;53.702;10.208;2024-02-15T09:56:24;101125.13;;;21.13;54.59
64895;BME280;51588;53.702;10.208;2024-02-15T09:58:54;101121.81;;;21.11;54.56
64895;BME280;51588;53.702;10.208;2024-02-15T10:01:23;101123.66;;;21.11;54.21
64895;BME280;51588;53.702;10.208;2024-02-15T10:03:49;101122.41;;;21.13;54.41
64895;BME280;51588;53.702;10.208;2024-02-15T10:06:16;101119.50;;;21.15;54.31
64895;BME280;51588;53.702;10.208;2024-02-15T10:08:45;101110.13;;;21.11;54.34
64895;BME280;51588;53.702;10.208;2024-02-15T10:11:12;101023.88;;;20.32;54.31
64895;BME280;51588;53.702;10.208;2024-02-15T10:13:39;101119.28;;;21.16;54.53
64895;BME280;51588;53.702;10.208;2024-02-15T10:16:14;101126.59;;;21.16;54.37
64895;BME280;51588;53.702;10.208;2024-02-15T10:18:41;101128.47;;;21.15;54.28
64895;BME280;51588;53.702;10.208;2024-02-15T10:21:08;101130.94;;;21.17;54.20
64895;BME280;51588;53.702;10.208;2024-02-15T10:23:36;101138.22;;;21.16;54.36
64895;BME280;51588;53.702;10.208;2024-02-15T10:26:19;101127.00;;;21.19;54.38
64895;BME280;51588;53.702;10.208;2024-02-15T10:29:05;101125.13;;;21.20;54.21
64895;BME280;51588;53.702;10.208;2024-02-15T10:31:32;101126.16;;;21.19;54.22
64895;BME280;51588;53.702;10.208;2024-02-15T10:34:02;101130.53;;;21.20;54.22
64895;BME280;51588;53.702;10.208;2024-02-15T10:36:30;101018.00;;;20.55;54.31
64895;BME280;51588;53.702;10.208;2024-02-15T10:39:10;101123.44;;;21.19;54.26
64895;BME280;51588;53.702;10.208;2024-02-15T10:41:46;101113.66;;;21.18;54.49
64895;BME280;51588;53.702;10.208;2024-02-15T10:44:15;101031.25;;;20.69;54.13
64895;BME280;51588;53.702;10.208;2024-02-15T10:46:44;101118.88;;;21.19;54.37
64895;BME280;51588;53.702;10.208;2024-02-15T10:49:12;101110.97;;;21.18;54.21
64895;BME280;51588;53.702;10.208;2024-02-15T10:51:44;101110.97;;;21.18;54.50
64895;BME280;51588;53.702;10.208;2024-02-15T10:54:22;101110.53;;;21.21;54.17
64895;BME280;51588;53.702;10.208;2024-02-15T10:57:04;101114.91;;;21.22;54.27
64895;BME280;51588;53.702;10.208;2024-02-15T10:59:45;101113.22;;;21.21;54.10
64895;BME280;51588;53.702;10.208;2024-02-15T11:02:26;101116.56;;;21.23;53.97
64895;BME280;51588;53.702;10.208;2024-02-15T11:04:59;101110.53;;;21.21;53.97
64895;BME280;51588;53.702;10.208;2024-02-15T11:07:31;101088.53;;;21.04;54.25
64895;BME280;51588;53.702;10.208;2024-02-15T11:09:59;101109.47;;;21.22;54.31
64895;BME280;51588;53.702;10.208;2024-02-15T11:12:28;101026.25;;;20.73;54.49
64895;BME280;51588;53.702;10.208;2024-02-15T11:14:59;101108.66;;;21.21;54.56
64895;BME280;51588;53.702;10.208;2024-02-15T11:17:45;101119.03;;;21.24;54.55
64895;BME280;51588;53.702;10.208;2024-02-15T11:20:47;101101.97;;;21.24;54.82
64895;BME280;51588;53.702;10.208;2024-02-15T11:23:26;101099.25;;;21.24;54.93
64895;BME280;51588;53.702;10.208;2024-02-15T11:25:53;101094.91;;;21.23;54.90
64895;BME280;51588;53.702;10.208;2024-02-15T11:28:39;101099.25;;;21.24;55.07
64895;BME280;51588;53.702;10.208;2024-02-15T11:31:09;101092.22;;;21.23;55.30
64895;BME280;51588;53.702;10.208;2024-02-15T11:33:37;101093.25;;;21.22;55.10
64895;BME280;51588;53.702;10.208;2024-02-15T11:36:06;101096.56;;;21.24;55.22
64895;BME280;51588;53.702;10.208;2024-02-15T11:38:33;101083.47;;;21.21;55.16
64895;BME280;51588;53.702;10.208;2024-02-15T11:41:03;101094.09;;;21.22;55.31
64895;BME280;51588;53.702;10.208;2024-02-15T11:43:52;101091.78;;;21.26;55.35
64895;BME280;51588;53.702;10.208;2024-02-15T11:46:22;101086.81;;;21.23;55.61
64895;BME280;51588;53.702;10.208;2024-02-15T11:48:50;101084.94;;;21.23;55.43
64895;BME280;51588;53.702;10.208;2024-02-15T11:51:28;101081.16;;;21.24;55.37
64895;BME280;51588;53.702;10.208;2024-02-15T11:54:02;100965.25;;;20.46;55.37
64895;BME280;51588;53.702;10.208;2024-02-15T11:56:51;100902.97;;;20.14;55.18
64895;BME280;51588;53.702;10.208;2024-02-15T11:59:21;101077.84;;;21.22;55.47
64895;BME280;51588;53.702;10.208;2024-02-15T12:01:58;101070.56;;;21.23;55.40
64895;BME280;51588;53.702;10.208;2024-02-15T12:04:42;101069.50;;;21.24;55.54
64895;BME280;51588;53.702;10.208;2024-02-15T12:07:27;101063.88;;;21.25;55.58
64895;BME280;51588;53.702;10.208;2024-02-15T12:10:16;101062.44;;;21.23;55.29
64895;BME280;51588;53.702;10.208;2024-02-15T12:13:00;101068.69;;;21.23;55.26
64895;BME280;51588;53.702;10.208;2024-02-15T12:16:06;101066.78;;;21.24;55.05
64895;BME280;51588;53.702;10.208;2024-02-15T12:18:53;101063.47;;;21.22;55.22
64895;BME280;51588;53.702;10.208;2024-02-15T12:21:23;101072.44;;;21.22;55.09
64895;BME280;51588;53.702;10.208;2024-02-15T12:23:54;101055.56;;;21.20;55.21
64895;BME280;51588;53.702;10.208;2024-02-15T12:26:21;101055.38;;;21.22;55.10
64895;BME280;51588;53.702;10.208;2024-02-15T12:28:52;101062.00;;;21.26;55.15
64895;BME280;51588;53.702;10.208;2024-02-15T12:31:21;101053.06;;;21.25;55.33
64895;BME280;51588;53.702;10.208;2024-02-15T12:34:00;101059.91;;;21.28;55.42
64895;BME280;51588;53.702;10.208;2024-02-15T12:36:27;101047.81;;;21.30;55.67
64895;BME280;51588;53.702;10.208;2024-02-15T12:39:01;101031.00;;;21.22;55.46
64895;BME280;51588;53.702;10.208;2024-02-15T12:41:32;100909.47;;;20.51;55.51
64895;BME280;51588;53.702;10.208;2024-02-15T12:43:58;101045.50;;;21.34;55.54
64895;BME280;51588;53.702;10.208;2024-02-15T12:46:31;101040.94;;;21.34;55.46
64895;BME280;51588;53.702;10.208;2024-02-15T12:49:28;101041.91;;;21.40;55.68
64895;BME280;51588;53.702;10.208;2024-02-15T12:52:36;101040.66;;;21.43;55.71
64895;BME280;51588;53.702;10.208;2024-02-15T12:55:07;101042.53;;;21.42;55.79